createdAt,value
2023-03-16T03:59:34.816Z,12.80
2023-03-16T04:02:06.754Z,14.20
2023-03-16T04:04:45.220Z,13.30
2023-03-16T04:07:18.455Z,14.40
2023-03-16T04:09:47.332Z,13.30
2023-03-16T04:12:37.512Z,14.10
2023-03-16T04:15:42.777Z,12.10
2023-03-16T04:18:38.499Z,11.80
2023-03-16T04:21:06.936Z,12.70
2023-03-16T04:23:34.699Z,11.80
2023-03-16T04:26:05.339Z,12.00
2023-03-16T04:28:34.248Z,12.10
2023-03-16T04:37:26.282Z,11.60
2023-03-16T04:40:15.256Z,15.00
2023-03-16T04:42:45.537Z,11.80
2023-03-16T04:45:15.277Z,11.80
2023-03-16T04:47:43.546Z,12.40
2023-03-16T04:50:19.320Z,12.60
2023-03-16T04:52:55.615Z,13.00
2023-03-16T04:55:25.242Z,12.00
2023-03-16T04:59:45.155Z,11.00
2023-03-16T05:02:47.421Z,10.30
2023-03-16T05:05:27.392Z,11.10
2023-03-16T05:07:57.324Z,11.80
2023-03-16T05:10:33.999Z,10.90
2023-03-16T05:13:13.806Z,11.10
2023-03-16T05:15:49.804Z,11.50
2023-03-16T05:18:32.214Z,12.70
2023-03-16T05:21:10.558Z,11.70
2023-03-16T05:23:52.700Z,11.50
2023-03-16T05:26:22.618Z,12.70
2023-03-16T05:29:19.561Z,12.70
2023-03-16T05:31:49.882Z,12.20
2023-03-16T05:34:21.556Z,12.00
2023-03-16T05:43:13.762Z,12.00
2023-03-16T05:45:48.253Z,11.50
2023-03-16T05:48:21.866Z,12.70
2023-03-16T05:50:53.909Z,12.80
2023-03-16T05:53:28.499Z,12.60
2023-03-16T05:56:03.658Z,13.40
2023-03-16T05:58:36.027Z,13.00
2023-03-16T06:01:11.620Z,11.80
2023-03-16T06:03:43.174Z,12.00
2023-03-16T06:06:36.167Z,11.80
2023-03-16T06:09:16.147Z,12.50
2023-03-16T06:11:47.452Z,13.20
2023-03-16T06:14:38.655Z,12.70
2023-03-16T06:17:17.153Z,13.20
2023-03-16T06:19:49.190Z,13.00
2023-03-16T06:22:22.322Z,12.40
2023-03-16T06:25:06.500Z,12.70
2023-03-16T06:27:59.203Z,13.40
2023-03-16T06:30:35.472Z,13.10
2023-03-16T06:33:48.971Z,11.70
2023-03-16T06:36:41.090Z,11.70
2023-03-16T06:39:32.133Z,12.10
2023-03-16T06:42:04.885Z,12.00
2023-03-16T06:44:36.519Z,13.50
2023-03-16T06:47:36.725Z,13.20
2023-03-16T06:50:12.817Z,15.40
2023-03-16T06:53:07.675Z,15.00
2023-03-16T07:02:35.694Z,13.40
2023-03-16T07:05:35.592Z,13.30
2023-03-16T07:08:09.453Z,13.20
2023-03-16T07:10:41.377Z,13.40
2023-03-16T07:14:12.067Z,14.80
2023-03-16T07:18:26.376Z,11.00
2023-03-16T07:20:55.594Z,13.90
2023-03-16T07:23:30.188Z,13.90
2023-03-16T07:26:04.106Z,13.40
2023-03-16T07:29:07.449Z,15.40
2023-03-16T07:31:38.353Z,15.50
2023-03-16T07:34:15.520Z,13.40
2023-03-16T07:39:40.093Z,14.40
2023-03-16T07:42:14.827Z,13.70
2023-03-16T07:45:20.170Z,13.90
2023-03-16T07:47:51.382Z,15.00
2023-03-16T07:50:30.122Z,15.50
2023-03-16T07:53:02.317Z,16.80
2023-03-16T07:56:14.718Z,15.60
2023-03-16T08:02:00.382Z,15.20
2023-03-16T08:04:45.181Z,15.00
2023-03-16T08:07:27.772Z,15.50
2023-03-16T08:10:04.386Z,16.20
2023-03-16T08:13:01.241Z,16.80
2023-03-16T08:16:47.294Z,16.30
2023-03-16T08:19:53.487Z,16.10
2023-03-16T08:22:30.626Z,17.40
2023-03-16T08:25:03.458Z,18.70
2023-03-16T08:27:39.284Z,16.70
2023-03-16T08:30:13.992Z,17.60
2023-03-16T08:32:47.108Z,16.70
2023-03-16T08:35:19.761Z,19.30
2023-03-16T08:37:56.056Z,17.70
2023-03-16T08:40:30.349Z,16.10
2023-03-16T08:43:01.053Z,16.40
2023-03-16T08:45:51.167Z,15.80
2023-03-16T08:51:00.100Z,16.60
2023-03-16T08:53:33.850Z,17.80
2023-03-16T08:56:15.479Z,17.30
2023-03-16T08:58:50.003Z,15.90
2023-03-16T09:01:34.121Z,16.80
2023-03-16T09:04:12.476Z,16.50
2023-03-16T09:06:42.973Z,15.90
2023-03-16T09:09:23.481Z,17.70
2023-03-16T09:15:10.640Z,16.40
2023-03-16T09:18:09.392Z,16.30
2023-03-16T09:20:40.890Z,15.80
2023-03-16T09:29:03.869Z,16.10
2023-03-16T09:48:48.412Z,17.10
2023-03-16T09:52:08.865Z,17.70
2023-03-16T09:59:41.253Z,15.40
2023-03-16T10:14:19.411Z,16.50
2023-03-16T10:17:47.533Z,17.90
2023-03-16T10:23:41.967Z,17.00
2023-03-16T10:26:39.394Z,16.70
2023-03-16T10:29:16.019Z,14.70
2023-03-16T10:31:45.413Z,14.10
2023-03-16T10:34:26.762Z,14.70
2023-03-16T10:40:12.773Z,13.90
2023-03-16T10:42:43.076Z,12.80
2023-03-16T10:45:48.591Z,14.00
2023-03-16T10:48:34.277Z,12.80
2023-03-16T10:54:15.540Z,14.30
2023-03-16T11:14:00.752Z,11.70
2023-03-16T11:17:08.822Z,12.60
2023-03-16T11:20:24.635Z,11.90
2023-03-16T11:23:11.837Z,11.40
2023-03-16T11:25:49.346Z,11.50
2023-03-16T11:37:58.223Z,10.60
2023-03-16T11:48:37.446Z,9.60
2023-03-16T11:51:31.993Z,9.70
2023-03-16T11:55:32.150Z,9.50
2023-03-16T12:02:00.906Z,8.50
2023-03-16T12:05:16.706Z,8.80
2023-03-16T12:11:25.331Z,7.50
2023-03-16T12:14:19.036Z,8.60
2023-03-16T12:16:50.162Z,8.60
2023-03-16T12:39:05.484Z,6.50
2023-03-16T12:42:06.040Z,6.70
2023-03-16T12:44:52.286Z,6.30
2023-03-16T12:47:47.236Z,6.40
2023-03-16T12:50:28.363Z,7.00
2023-03-16T12:53:45.367Z,6.30
2023-03-16T12:57:28.094Z,7.10
2023-03-16T13:00:01.433Z,6.90
2023-03-16T13:02:34.265Z,6.60
2023-03-16T13:05:20.421Z,7.00
2023-03-16T16:27:08.361Z,20.50
2023-03-16T16:36:38.460Z,12.30
2023-03-16T16:39:09.116Z,12.80
2023-03-16T16:41:37.786Z,11.50
2023-03-16T16:44:24.386Z,12.10
2023-03-16T16:46:55.122Z,14.50
2023-03-16T16:49:30.270Z,13.50
2023-03-16T16:51:58.704Z,12.40
2023-03-16T16:54:32.322Z,9.80
2023-03-16T16:57:08.217Z,8.90
2023-03-16T16:59:40.607Z,10.50
2023-03-16T17:02:22.628Z,9.90
2023-03-16T17:04:56.044Z,10.70
2023-03-16T17:07:24.863Z,11.90
2023-03-16T17:10:09.081Z,10.70
2023-03-16T17:13:09.038Z,11.60
2023-03-16T17:15:50.956Z,11.90
2023-03-16T17:18:23.186Z,11.60
2023-03-16T17:20:52.869Z,11.90
2023-03-16T17:23:33.480Z,11.60
2023-03-16T17:26:50.017Z,11.90
2023-03-16T17:29:33.992Z,12.70
2023-03-16T17:32:23.002Z,12.60
2023-03-16T17:35:21.128Z,12.30
2023-03-16T17:38:03.817Z,13.50
2023-03-16T17:46:44.658Z,13.40
2023-03-16T17:49:32.097Z,13.10
2023-03-16T18:00:16.163Z,13.70
2023-03-16T18:03:58.495Z,12.50
2023-03-16T18:55:17.418Z,11.10
2023-03-16T18:58:18.790Z,11.50
2023-03-16T19:01:09.963Z,11.40
2023-03-16T19:06:56.972Z,11.20
2023-03-16T20:16:55.006Z,12.50
2023-03-16T20:48:34.043Z,12.40
2023-03-16T20:58:18.618Z,12.50
2023-03-16T21:04:22.306Z,13.50
2023-03-16T21:06:51.443Z,13.40
2023-03-16T21:09:45.356Z,14.20
2023-03-16T21:12:50.335Z,16.80
2023-03-16T21:19:20.906Z,19.80
2023-03-16T21:22:37.461Z,15.80
2023-03-16T21:29:07.434Z,17.10
2023-03-16T21:31:37.833Z,14.60
2023-03-16T21:38:25.457Z,14.40
2023-03-16T21:40:56.939Z,13.70
2023-03-16T21:46:21.936Z,13.80
2023-03-16T21:48:55.226Z,14.40
2023-03-16T21:51:32.105Z,12.10
2023-03-16T21:55:32.417Z,11.70
2023-03-16T22:02:02.669Z,13.00
2023-03-16T22:05:39.983Z,13.20
2023-03-16T22:08:47.687Z,11.50
2023-03-16T22:17:16.723Z,11.10
2023-03-16T22:23:00.241Z,10.80
2023-03-16T22:28:55.186Z,11.50
2023-03-16T22:31:37.312Z,11.50
2023-03-16T22:47:55.637Z,12.70
2023-03-16T22:51:08.290Z,15.50
2023-03-16T22:53:54.141Z,16.70
2023-03-16T22:56:26.592Z,14.70
2023-03-16T22:59:29.112Z,15.50
2023-03-16T23:02:07.172Z,13.50
2023-03-16T23:07:36.265Z,14.50
2023-03-16T23:10:15.115Z,15.30
2023-03-16T23:12:46.800Z,14.20
2023-03-16T23:15:23.474Z,14.20
2023-03-16T23:18:29.693Z,13.40
2023-03-16T23:21:02.166Z,12.70
2023-03-16T23:23:30.986Z,24.70
2023-03-16T23:26:19.044Z,23.40
2023-03-16T23:29:13.226Z,18.10
2023-03-16T23:35:43.123Z,20.40
2023-03-16T23:38:31.415Z,18.10
2023-03-16T23:41:25.956Z,17.60
2023-03-16T23:46:53.539Z,16.50
2023-03-16T23:49:40.416Z,16.50
2023-03-16T23:55:05.992Z,17.50
